Mountain View, Arkansas
Current Conditions -  °F | °C
As of 12:55 AM on Thursday 23 Oct 2014 (Local Time) from KBVX Reporting Station
Clear Clear  
Wind Chill: 42°   Ceiling: Unl
Heat Index: 45°   Visibility: 10mi
Dew Point: 43°   Wind: 5mph
Humidity: 93%   Direction: 320°NW
Pressure: 30.2"   Gusts: NA
Location:  35.87°N, 92.12°W
Report Text: KBVX 230555Z AUTO 32004KT 10SM CLR 07/06 A3020 RMK AO1 10150 20070 57007
Loading
Personal Weather Stations






























Interactive Weather Map
Tropical Storm Tracking
New forecast layout! Learn more

10-Day Weather Forecast

Advertisements
Track Severe Weather on mobile